Terminal Aerodrome Forecast
Issued by NWS

Home | Current Version | Previous Version | Text Only | Print | Product List | Glossary On
Versions: 1 2 3 4 5 6 7 8 9 10 11 12
000
FTUS44 KOUN 201738
TAFLAW
TAF
KLAW 201738Z 2018/2118 18014KT P6SM BKN040
      TEMPO 2018/2022 2SM TSRA BR BKN025CB
     FM210300 15011KT P6SM VCSH BKN035 PROB30 2103/2108 3SM TSRA BR
      OVC012CB
     FM210800 24006KT 4SM BR VCSH OVC012
     FM211400 24007KT P6SM BKN025=

USA.gov is the U.S. government's official web portal to all federal, state and local government web resources and services.